Time;durP1;ratioP1;P1;durP2;ratioP2;P2;SDS_P1;SDS_P2;PMS_P1;PMS_P2;Temp;Humidity;BMP_temperature;BMP_pressure;BME280_temperature;BME280_humidity;BME280_pressure;Samples;Min_cycle;Max_cycle;Signal;HPM_P1;HPM_P2
2022/07/03 00:00:16;;;;;;;;;;;21.20;59.20;;;;;;9184106;19;20021;-65
2022/07/03 00:03:21;;;;;;;3.90;2.70;;;21.20;58.80;;;;;;9185035;19;19919;-66
2022/07/03 00:06:27;;;;;;;5.22;3.13;;;21.20;58.90;;;;;;9185300;19;20015;-67
2022/07/03 00:09:33;;;;;;;4.60;2.70;;;21.20;59.10;;;;;;9182484;19;20018;-66
2022/07/03 00:12:41;;;;;;;3.10;2.30;;;21.20;59.20;;;;;;9183552;19;20014;-66
2022/07/03 00:15:46;;;;;;;4.20;2.78;;;21.10;59.40;;;;;;9185550;19;20020;-66
2022/07/03 00:18:51;;;;;;;9.25;2.50;;;21.10;59.40;;;;;;9178159;19;20018;-66
2022/07/03 00:21:59;;;;;;;2.50;2.30;;;21.10;59.50;;;;;;9182429;19;20012;-66
2022/07/03 00:25:07;;;;;;;6.60;2.80;;;21.10;59.70;;;;;;9182758;19;20495;-67
2022/07/03 00:28:14;;;;;;;4.95;2.80;;;21.00;59.70;;;;;;9179811;19;20055;-68
2022/07/03 00:31:19;;;;;;;7.22;3.45;;;21.00;59.80;;;;;;9183837;19;20097;-66
2022/07/03 00:34:26;;;;;;;4.13;2.75;;;21.00;59.80;;;;;;9182934;19;20044;-66
2022/07/03 00:37:32;;;;;;;4.03;2.85;;;21.00;60.00;;;;;;9183287;19;20018;-66
2022/07/03 00:40:37;;;;;;;8.10;3.10;;;20.90;60.00;;;;;;9184730;19;20055;-65
2022/07/03 00:43:45;;;;;;;11.10;4.85;;;20.90;60.10;;;;;;9181899;19;20033;-66
2022/07/03 00:46:53;;;;;;;8.35;3.83;;;20.90;60.30;;;;;;9183876;19;20022;-67
2022/07/03 00:49:59;;;;;;;7.32;3.72;;;20.80;60.30;;;;;;9178385;19;20538;-67
2022/07/03 00:53:05;;;;;;;6.82;3.28;;;20.80;60.40;;;;;;9181472;19;20483;-67
2022/07/03 00:56:13;;;;;;;11.07;3.80;;;20.80;60.60;;;;;;9183471;19;20018;-66
2022/07/03 00:59:21;;;;;;;6.60;3.22;;;20.80;60.70;;;;;;9184432;19;20087;-66
2022/07/03 01:02:41;;;;;;;10.27;4.05;;;20.70;60.80;;;;;;9183313;19;20026;-66
2022/07/03 01:05:51;;;;;;;10.75;4.60;;;20.70;61.00;;;;;;9178029;19;20029;-66
2022/07/03 01:09:01;;;;;;;8.07;4.28;;;20.70;60.90;;;;;;9178555;19;20018;-66
2022/07/03 01:12:12;;;;;;;9.05;4.30;;;20.70;61.10;;;;;;9180268;19;20722;-66
2022/07/03 01:15:36;;;;;;;7.28;3.65;;;20.60;61.20;;;;;;9180284;19;20458;-66
2022/07/03 01:18:47;;;;;;;7.90;4.10;;;20.60;61.30;;;;;;9178426;19;20025;-65
2022/07/03 01:22:28;;;;;;;5.15;3.22;;;20.60;61.30;;;;;;9181519;19;20018;-66
2022/07/03 01:25:45;;;;;;;4.78;3.17;;;20.60;61.50;;;;;;9180777;19;20019;-66
2022/07/03 01:28:50;;;;;;;3.38;3.00;;;20.50;61.60;;;;;;9179943;19;20036;-65
2022/07/03 01:31:57;;;;;;;6.55;3.30;;;20.50;61.40;;;;;;9181454;19;20030;-66
2022/07/03 01:35:04;;;;;;;4.10;3.30;;;20.50;61.60;;;;;;9179861;19;20010;-65
2022/07/03 01:38:13;;;;;;;12.30;3.67;;;20.40;61.60;;;;;;9179569;19;20098;-66
2022/07/03 01:41:20;;;;;;;6.63;3.33;;;20.40;61.70;;;;;;9180985;19;20021;-66
2022/07/03 01:44:28;;;;;;;8.35;3.45;;;20.40;61.80;;;;;;9180842;19;20508;-65
2022/07/03 01:47:36;;;;;;;5.60;3.28;;;20.30;61.80;;;;;;9179801;19;20022;-65
2022/07/03 01:50:43;;;;;;;4.75;3.50;;;20.30;61.80;;;;;;9178238;19;20022;-66
2022/07/03 01:53:50;;;;;;;4.03;3.20;;;20.30;61.90;;;;;;9180897;19;20014;-65
2022/07/03 01:56:58;;;;;;;4.35;3.25;;;20.20;61.90;;;;;;9178508;19;20098;-65
2022/07/03 02:00:04;;;;;;;7.90;3.60;;;20.20;62.10;;;;;;9181206;19;20041;-67
2022/07/03 02:03:22;;;;;;;6.95;3.70;;;20.10;62.10;;;;;;9180191;19;20490;-66
2022/07/03 02:06:37;;;;;;;5.03;3.53;;;20.00;62.10;;;;;;9178227;19;20029;-65
2022/07/03 02:09:50;;;;;;;8.15;3.67;;;20.00;62.30;;;;;;9177211;19;20041;-65
2022/07/03 02:13:02;;;;;;;7.47;3.10;;;20.00;62.40;;;;;;9179517;19;20015;-66
2022/07/03 02:16:11;;;;;;;4.35;3.50;;;19.90;62.50;;;;;;9174437;19;20010;-66
2022/07/03 02:19:19;;;;;;;6.72;3.65;;;19.90;62.50;;;;;;9179759;19;20333;-65
2022/07/03 02:22:30;;;;;;;4.88;3.28;;;19.80;62.50;;;;;;9178124;19;20416;-66
2022/07/03 02:25:37;;;;;;;9.18;3.65;;;19.70;62.60;;;;;;9180224;19;20082;-68
2022/07/03 02:28:58;;;;;;;5.55;3.50;;;19.70;62.70;;;;;;9179229;19;20029;-66
2022/07/03 02:32:07;;;;;;;7.15;3.60;;;19.60;63.50;;;;;;9178075;19;20029;-65
2022/07/03 02:35:15;;;;;;;4.85;3.72;;;19.60;62.80;;;;;;9179633;19;20010;-66
2022/07/03 02:38:22;;;;;;;5.75;3.63;;;19.60;63.00;;;;;;9179970;19;20019;-66
2022/07/03 02:41:35;;;;;;;6.40;3.70;;;19.50;63.00;;;;;;9178286;19;20025;-66
2022/07/03 02:44:48;;;;;;;6.13;3.60;;;19.40;63.20;;;;;;9177163;19;20755;-65
2022/07/03 02:48:01;;;;;;;4.97;3.57;;;19.40;63.40;;;;;;9179251;19;20078;-66
2022/07/03 02:51:12;;;;;;;7.18;3.35;;;19.40;63.30;;;;;;9176730;19;20364;-66
2022/07/03 02:54:18;;;;;;;5.13;3.10;;;19.30;63.30;;;;;;9177970;19;20014;-66
2022/07/03 02:57:23;;;;;;;5.28;3.30;;;19.30;63.40;;;;;;9177451;19;20025;-66
2022/07/03 03:00:39;;;;;;;4.80;3.72;;;19.20;63.50;;;;;;9178728;19;20026;-65
2022/07/03 03:03:53;;;;;;;7.85;3.58;;;19.20;63.80;;;;;;9177941;19;20472;-66
2022/07/03 03:07:03;;;;;;;6.00;4.10;;;19.10;63.80;;;;;;9178010;19;20021;-66
2022/07/03 03:10:10;;;;;;;6.22;3.70;;;19.10;63.70;;;;;;9177156;19;20026;-66
2022/07/03 03:13:19;;;;;;;8.32;3.90;;;19.00;63.70;;;;;;9179548;19;20013;-66
2022/07/03 03:16:27;;;;;;;4.53;3.95;;;19.00;63.90;;;;;;9174396;19;21358;-66
2022/07/03 03:19:42;;;;;;;6.50;3.78;;;18.90;64.00;;;;;;9176966;19;20085;-67
2022/07/03 03:23:24;;;;;;;6.30;4.30;;;18.90;64.10;;;;;;9178808;19;20018;-66
2022/07/03 03:26:31;;;;;;;4.40;3.92;;;18.80;64.30;;;;;;9175763;19;20089;-66
2022/07/03 03:29:37;;;;;;;7.75;4.28;;;18.80;64.10;;;;;;9175522;19;20033;-66
2022/07/03 03:32:45;;;;;;;12.43;3.72;;;18.70;64.10;;;;;;9178081;19;20025;-65
2022/07/03 03:35:50;;;;;;;6.10;3.95;;;18.70;64.30;;;;;;9178415;19;20022;-66
2022/07/03 03:38:55;;;;;;;9.45;5.47;;;18.60;64.30;;;;;;9176860;19;20042;-65
2022/07/03 03:42:02;;;;;;;7.07;4.68;;;18.60;64.40;;;;;;9176737;19;20010;-66
2022/07/03 03:45:08;;;;;;;9.25;5.05;;;18.60;65.20;;;;;;9176938;19;20475;-66
2022/07/03 03:48:16;;;;;;;10.10;5.22;;;18.50;64.60;;;;;;9178070;19;20038;-66
2022/07/03 03:51:21;;;;;;;7.18;4.78;;;18.50;64.80;;;;;;9173843;19;20025;-65
2022/07/03 03:54:26;;;;;;;7.20;4.75;;;18.40;64.80;;;;;;9178239;19;20093;-65
2022/07/03 03:57:31;;;;;;;10.35;4.50;;;18.40;65.00;;;;;;9176196;19;20017;-65
2022/07/03 04:00:36;;;;;;;8.63;4.10;;;18.40;65.70;;;;;;9178121;19;20031;-65
2022/07/03 04:03:44;;;;;;;9.43;3.88;;;18.30;65.10;;;;;;9175827;19;20377;-66
2022/07/03 04:06:49;;;;;;;5.85;4.10;;;18.30;65.30;;;;;;9176692;19;20018;-67
2022/07/03 04:09:54;;;;;;;8.43;4.78;;;18.30;65.20;;;;;;9176385;19;20022;-66
2022/07/03 04:12:59;;;;;;;4.82;3.28;;;18.30;65.30;;;;;;9173667;19;20014;-66
2022/07/03 04:16:04;;;;;;;9.43;3.45;;;18.20;65.30;;;;;;9175498;19;20018;-65
2022/07/03 04:19:11;;;;;;;8.13;3.38;;;18.20;65.40;;;;;;9177366;19;20018;-66
2022/07/03 04:22:16;;;;;;;7.22;3.55;;;18.20;65.50;;;;;;9174959;19;20021;-65
2022/07/03 04:25:21;;;;;;;5.65;3.55;;;18.20;65.50;;;;;;9176743;19;20022;-65
2022/07/03 04:28:26;;;;;;;5.43;3.85;;;18.20;65.60;;;;;;9177006;19;20019;-65
2022/07/03 04:31:31;;;;;;;5.32;3.30;;;18.20;65.60;;;;;;9173053;19;20015;-65
2022/07/03 04:34:40;;;;;;;10.85;3.72;;;18.20;65.70;;;;;;9174178;19;20023;-65
2022/07/03 04:37:45;;;;;;;7.60;4.13;;;18.20;65.80;;;;;;9176657;19;20022;-65
2022/07/03 04:40:50;;;;;;;4.65;3.40;;;18.30;65.90;;;;;;9174274;19;20020;-65
2022/07/03 04:43:55;;;;;;;6.25;3.60;;;18.30;66.00;;;;;;9176183;19;20014;-66
2022/07/03 04:47:00;;;;;;;6.53;3.60;;;18.30;66.00;;;;;;9185356;19;20028;-66
2022/07/03 04:50:09;;;;;;;4.82;3.30;;;18.30;66.00;;;;;;9182741;19;20010;-66
2022/07/03 04:53:14;;;;;;;12.57;3.38;;;18.30;66.10;;;;;;9185553;19;20018;-66
2022/07/03 04:56:19;;;;;;;4.50;3.05;;;18.40;66.10;;;;;;9185019;19;20018;-66
2022/07/03 04:59:24;;;;;;;6.97;3.67;;;18.40;66.20;;;;;;9183407;19;20459;-66
2022/07/03 05:02:29;;;;;;;11.85;3.58;;;18.50;66.20;;;;;;9183063;19;20022;-65
2022/07/03 05:05:36;;;;;;;4.68;3.45;;;18.50;66.20;;;;;;9181498;19;20019;-65
2022/07/03 05:08:41;;;;;;;9.18;3.20;;;18.50;66.30;;;;;;9181602;19;20018;-67
2022/07/03 05:11:46;;;;;;;6.43;3.63;;;18.60;66.20;;;;;;9181534;19;20022;-66
2022/07/03 05:14:52;;;;;;;7.47;3.95;;;18.60;66.20;;;;;;9181944;19;20015;-66
2022/07/03 05:17:56;;;;;;;5.13;3.08;;;18.60;66.20;;;;;;9179672;19;20019;-66
2022/07/03 05:21:04;;;;;;;9.75;3.20;;;18.70;66.30;;;;;;9182922;19;20018;-66
2022/07/03 05:24:10;;;;;;;7.22;3.85;;;18.70;66.30;;;;;;9183916;19;20011;-66
2022/07/03 05:27:16;;;;;;;7.82;3.60;;;18.70;66.30;;;;;;9182027;19;20027;-65
2022/07/03 05:30:22;;;;;;;9.93;4.15;;;18.80;66.30;;;;;;9183057;19;20017;-66
2022/07/03 05:33:27;;;;;;;7.55;3.42;;;18.80;66.30;;;;;;9181573;19;20025;-66
2022/07/03 05:36:34;;;;;;;10.98;3.90;;;18.80;66.20;;;;;;9182883;19;20719;-65
2022/07/03 05:39:39;;;;;;;7.40;3.92;;;18.90;66.30;;;;;;9183864;19;20014;-65
2022/07/03 05:42:44;;;;;;;9.50;3.75;;;18.90;66.30;;;;;;9181385;19;20019;-66
2022/07/03 05:45:49;;;;;;;5.75;3.72;;;18.90;66.30;;;;;;9182570;19;20058;-65
2022/07/03 05:48:54;;;;;;;9.20;4.35;;;19.00;66.30;;;;;;9180987;19;20105;-64
2022/07/03 05:52:02;;;;;;;7.53;3.78;;;19.00;66.40;;;;;;9177458;19;20018;-66
2022/07/03 05:55:07;;;;;;;12.43;3.42;;;19.10;66.70;;;;;;9180368;19;20380;-66
2022/07/03 05:58:13;;;;;;;5.25;3.53;;;19.10;66.70;;;;;;9178377;19;20506;-67
2022/07/03 06:01:18;;;;;;;9.23;3.60;;;19.20;66.70;;;;;;9179845;19;20018;-66
2022/07/03 06:04:23;;;;;;;8.10;3.38;;;19.30;66.70;;;;;;9178579;19;20029;-65
2022/07/03 06:07:31;;;;;;;6.28;3.17;;;19.40;66.60;;;;;;9179354;19;20107;-66
2022/07/03 06:10:36;;;;;;;4.88;3.10;;;19.60;66.80;;;;;;9180250;19;20010;-65
2022/07/03 06:13:41;;;;;;;4.22;2.50;;;19.80;66.80;;;;;;9181830;19;20019;-65
2022/07/03 06:16:46;;;;;;;5.13;2.53;;;19.90;66.60;;;;;;9177478;19;20085;-66
2022/07/03 06:19:51;;;;;;;7.95;3.30;;;20.10;66.60;;;;;;9178933;19;20081;-66
2022/07/03 06:22:58;;;;;;;10.10;3.75;;;20.30;66.50;;;;;;9179381;19;20019;-66
2022/07/03 06:26:03;;;;;;;8.90;3.20;;;20.50;66.40;;;;;;9179980;19;20018;-66
2022/07/03 06:29:09;;;;;;;7.93;2.50;;;20.70;66.20;;;;;;9181576;19;20015;-65
2022/07/03 06:32:14;;;;;;;4.13;2.20;;;20.90;66.00;;;;;;9179688;19;20475;-67
2022/07/03 06:35:19;;;;;;;4.15;1.90;;;21.20;65.80;;;;;;9181123;19;20021;-66
2022/07/03 06:38:31;;;;;;;6.63;2.10;;;21.40;65.40;;;;;;9181018;19;20015;-67
2022/07/03 06:41:36;;;;;;;5.15;2.03;;;21.60;65.10;;;;;;9178839;19;20021;-66
2022/07/03 06:44:41;;;;;;;3.45;1.90;;;21.80;64.90;;;;;;9181938;19;20776;-66
2022/07/03 06:47:46;;;;;;;3.90;1.50;;;22.10;64.70;;;;;;9182406;19;20830;-66
2022/07/03 06:50:51;;;;;;;6.20;1.95;;;22.30;64.40;;;;;;9180878;19;20018;-66
2022/07/03 06:53:59;;;;;;;2.60;1.30;;;22.50;64.10;;;;;;9180911;19;20497;-66
2022/07/03 06:57:04;;;;;;;3.08;1.48;;;22.80;63.70;;;;;;9182100;19;20417;-66
2022/07/03 07:00:11;;;;;;;5.03;1.52;;;23.00;63.50;;;;;;9179506;19;20015;-67
2022/07/03 07:03:16;;;;;;;2.25;1.10;;;23.20;63.20;;;;;;9181012;19;20030;-66
2022/07/03 07:06:21;;;;;;;1.65;0.88;;;23.40;62.80;;;;;;9180190;19;20022;-67
2022/07/03 07:09:28;;;;;;;1.90;1.00;;;23.70;62.50;;;;;;9181112;19;20015;-66
2022/07/03 07:12:33;;;;;;;3.80;1.27;;;23.90;62.00;;;;;;9177485;19;20033;-68
2022/07/03 07:15:42;;;;;;;2.63;0.90;;;24.10;61.80;;;;;;9178076;19;20025;-68
2022/07/03 07:18:48;;;;;;;3.33;1.15;;;24.30;61.40;;;;;;9175464;19;20014;-69
2022/07/03 07:21:53;;;;;;;3.72;1.35;;;24.50;61.00;;;;;;9179769;19;20010;-68
2022/07/03 07:25:00;;;;;;;1.58;0.82;;;24.80;60.60;;;;;;9181961;19;20018;-68
2022/07/03 07:28:06;;;;;;;6.13;1.30;;;24.90;60.20;;;;;;9181391;19;20017;-69
2022/07/03 07:31:11;;;;;;;6.45;1.15;;;25.00;60.00;;;;;;9179848;19;20803;-67
2022/07/03 07:34:16;;;;;;;3.42;1.10;;;25.20;59.80;;;;;;9174620;19;20026;-67
2022/07/03 07:37:21;;;;;;;4.05;1.40;;;25.30;59.50;;;;;;9174158;19;20013;-68
2022/07/03 07:40:29;;;;;;;3.90;1.60;;;25.40;59.30;;;;;;9174919;19;20108;-67
2022/07/03 07:43:34;;;;;;;2.95;1.20;;;25.50;59.00;;;;;;9173292;19;20657;-69
2022/07/03 07:46:39;;;;;;;3.83;0.90;;;25.70;59.00;;;;;;9174312;19;20018;-68
2022/07/03 07:49:44;;;;;;;6.05;1.10;;;25.80;58.80;;;;;;9173812;19;20345;-66
2022/07/03 07:52:49;;;;;;;1.30;0.80;;;25.90;58.40;;;;;;9171635;19;20029;-67
2022/07/03 07:55:57;;;;;;;2.22;0.82;;;26.10;58.20;;;;;;9176508;19;20022;-68
2022/07/03 07:59:02;;;;;;;2.50;0.70;;;26.20;57.80;;;;;;9169786;19;20044;-70
2022/07/03 08:05:39;;;;;;;2.72;1.10;;;26.50;57.40;;;;;;9175550;19;20015;-65
2022/07/03 08:08:44;;;;;;;2.95;0.98;;;26.70;57.20;;;;;;9177928;19;20377;-65
2022/07/03 08:11:52;;;;;;;2.75;1.27;;;26.80;57.00;;;;;;9177805;19;20017;-66
2022/07/03 08:15:03;;;;;;;2.17;1.07;;;26.90;56.70;;;;;;9178935;19;20052;-66
2022/07/03 08:18:10;;;;;;;6.05;1.20;;;27.10;56.80;;;;;;9175858;19;20025;-65
2022/07/03 08:21:15;;;;;;;4.60;1.05;;;27.30;56.50;;;;;;9187108;19;20494;-66
2022/07/03 08:24:20;;;;;;;1.88;0.90;;;27.40;56.20;;;;;;9188319;19;20022;-67
2022/07/03 08:27:27;;;;;;;2.28;0.95;;;27.50;56.00;;;;;;9186881;19;20463;-65
2022/07/03 08:30:32;;;;;;;4.97;1.55;;;27.70;55.70;;;;;;9186812;19;20486;-68
2022/07/03 08:33:37;;;;;;;0.70;0.70;;;27.80;55.50;;;;;;9179868;19;20014;-66
2022/07/03 08:36:43;;;;;;;5.20;1.15;;;27.90;55.30;;;;;;9178580;19;20049;-67
2022/07/03 08:39:48;;;;;;;2.78;0.95;;;28.00;55.20;;;;;;9183550;19;20003;-65
2022/07/03 08:42:57;;;;;;;3.67;1.00;;;28.10;55.10;;;;;;9181858;19;20033;-66
2022/07/03 08:46:03;;;;;;;4.97;1.15;;;28.20;54.70;;;;;;9177965;19;20021;-65
2022/07/03 08:49:09;;;;;;;4.30;1.45;;;28.40;54.60;;;;;;9182338;19;20030;-69
2022/07/03 08:52:15;;;;;;;2.67;0.95;;;28.50;54.40;;;;;;9182323;19;20018;-67
2022/07/03 08:55:21;;;;;;;2.38;1.10;;;28.60;54.10;;;;;;9181414;19;20476;-66
2022/07/03 08:58:33;;;;;;;3.17;0.85;;;28.60;53.80;;;;;;9179545;19;20029;-66
2022/07/03 09:01:41;;;;;;;4.10;0.90;;;28.60;53.50;;;;;;9180985;19;20054;-66
2022/07/03 09:04:50;;;;;;;6.32;1.10;;;28.70;53.60;;;;;;9180275;19;20371;-65
2022/07/03 09:07:57;;;;;;;3.85;0.98;;;28.70;53.50;;;;;;9183256;19;20357;-67
2022/07/03 09:11:02;;;;;;;4.68;1.13;;;28.70;53.40;;;;;;9182926;19;20502;-70
2022/07/03 09:14:10;;;;;;;4.95;1.00;;;28.70;53.40;;;;;;9174105;19;20025;-69
2022/07/03 09:17:15;;;;;;;4.13;1.10;;;28.70;53.10;;;;;;9174454;19;20026;-68
2022/07/03 09:20:20;;;;;;;3.85;1.23;;;28.60;52.90;;;;;;9181977;19;20032;-68
2022/07/03 09:23:25;;;;;;;4.03;1.15;;;28.70;52.90;;;;;;9178343;19;20014;-69
2022/07/03 09:26:30;;;;;;;7.45;1.50;;;28.60;52.80;;;;;;9183672;19;20025;-67
2022/07/03 09:29:37;;;;;;;10.05;1.58;;;28.60;52.80;;;;;;9182144;19;20042;-69
2022/07/03 09:32:47;;;;;;;2.28;0.75;;;28.60;52.70;;;;;;9181349;19;20510;-67
2022/07/03 09:35:55;;;;;;;6.70;1.30;;;28.50;52.70;;;;;;9181448;19;20025;-68
2022/07/03 09:39:00;;;;;;;2.80;1.02;;;28.50;52.80;;;;;;9182198;19;20476;-71
2022/07/03 09:42:08;;;;;;;4.18;1.58;;;28.50;52.90;;;;;;9178801;19;20479;-66
2022/07/03 09:45:16;;;;;;;5.53;1.20;;;28.40;52.80;;;;;;9180691;19;20018;-66
2022/07/03 09:48:25;;;;;;;5.18;1.27;;;28.50;52.60;;;;;;9176980;19;20033;-68
2022/07/03 09:51:40;;;;;;;3.97;1.25;;;28.50;52.50;;;;;;9174942;19;20064;-70
2022/07/03 09:54:45;;;;;;;7.50;1.70;;;28.50;53.10;;;;;;9174861;19;20514;-69
2022/07/03 09:58:02;;;;;;;2.58;0.90;;;28.50;52.40;;;;;;9180536;19;20105;-69
2022/07/03 10:01:22;;;;;;;5.18;1.17;;;28.60;52.10;;;;;;9182583;19;20111;-68
2022/07/03 10:04:27;;;;;;;7.18;1.10;;;28.60;51.80;;;;;;9179285;19;20468;-67
2022/07/03 10:07:32;;;;;;;2.97;1.20;;;28.60;51.90;;;;;;9180908;19;20124;-69
2022/07/03 10:10:39;;;;;;;3.17;1.00;;;28.70;51.90;;;;;;9183282;19;20832;-67
2022/07/03 10:13:44;;;;;;;2.67;0.82;;;28.70;51.70;;;;;;9181881;19;20021;-67
2022/07/03 10:16:52;;;;;;;2.60;1.08;;;28.70;52.20;;;;;;9171138;19;20433;-67
2022/07/03 10:19:58;;;;;;;5.07;1.10;;;28.70;51.50;;;;;;9174460;19;20051;-67
2022/07/03 10:23:04;;;;;;;3.38;1.30;;;28.60;51.40;;;;;;9172530;19;20514;-66
2022/07/03 10:26:11;;;;;;;2.13;0.90;;;28.60;51.30;;;;;;9174383;19;20018;-66
2022/07/03 10:29:18;;;;;;;4.15;1.80;;;28.60;51.40;;;;;;9171729;19;20018;-68
2022/07/03 10:32:26;;;;;;;4.10;1.15;;;28.60;51.30;;;;;;9173216;19;20086;-67
2022/07/03 10:35:36;;;;;;;2.75;0.82;;;28.60;51.30;;;;;;9171536;19;20356;-67
2022/07/03 10:38:42;;;;;;;4.97;1.20;;;28.50;51.20;;;;;;9172247;19;20015;-67
2022/07/03 10:45:12;;;;;;;9.45;1.60;;;28.40;51.10;;;;;;9172127;19;20018;-68
2022/07/03 10:48:20;;;;;;;5.03;1.35;;;28.40;51.10;;;;;;9173116;19;20022;-67
2022/07/03 10:51:26;;;;;;;3.03;0.88;;;28.30;51.00;;;;;;9176031;19;20033;-68
2022/07/03 10:54:33;;;;;;;2.00;0.88;;;28.20;51.00;;;;;;9169743;19;20097;-67
2022/07/03 10:57:39;;;;;;;5.20;1.00;;;28.20;51.00;;;;;;9170472;19;20638;-68
2022/07/03 11:00:57;;;;;;;4.20;1.00;;;28.10;51.00;;;;;;9170561;19;20023;-68
2022/07/03 11:04:05;;;;;;;3.20;1.00;;;28.10;50.80;;;;;;9171803;19;20078;-67
2022/07/03 11:07:13;;;;;;;4.82;1.10;;;28.10;50.90;;;;;;9170674;19;20804;-67
2022/07/03 11:10:40;;;;;;;2.30;0.80;;;28.10;50.80;;;;;;9172669;19;20466;-68
2022/07/03 11:14:15;;;;;;;3.97;0.88;;;28.10;50.90;;;;;;9171839;19;20384;-68
2022/07/03 11:17:21;;;;;;;2.10;0.80;;;28.20;50.80;;;;;;9167413;19;20341;-70
2022/07/03 11:20:31;;;;;;;3.53;0.80;;;28.20;50.80;;;;;;9173935;19;20050;-67
2022/07/03 11:23:45;;;;;;;4.22;0.68;;;28.30;50.50;;;;;;9168351;19;20371;-67
2022/07/03 11:27:15;;;;;;;1.50;0.60;;;28.40;50.10;;;;;;9170733;19;20117;-68
2022/07/03 11:30:21;;;;;;;1.35;0.50;;;28.50;49.90;;;;;;9173583;19;20090;-68
2022/07/03 11:33:44;;;;;;;2.10;0.80;;;28.60;50.00;;;;;;9169921;19;20453;-67
2022/07/03 11:36:52;;;;;;;1.75;0.40;;;28.60;49.50;;;;;;9171314;19;20022;-67
2022/07/03 11:40:02;;;;;;;2.78;0.70;;;28.60;49.70;;;;;;9168502;19;20022;-67
2022/07/03 11:43:08;;;;;;;2.40;0.73;;;28.50;49.50;;;;;;9166269;19;20010;-68
2022/07/03 11:46:13;;;;;;;2.42;0.55;;;28.60;49.60;;;;;;9168713;19;20018;-68
2022/07/03 11:49:20;;;;;;;2.92;0.80;;;28.50;49.40;;;;;;9168041;19;20649;-68
2022/07/03 11:52:36;;;;;;;4.82;1.00;;;28.60;49.30;;;;;;9167526;19;20023;-68
2022/07/03 11:55:49;;;;;;;2.35;0.70;;;28.60;49.00;;;;;;9173817;19;20487;-68
2022/07/03 11:58:56;;;;;;;1.65;0.60;;;28.60;49.00;;;;;;9183629;19;20625;-67
2022/07/03 12:02:05;;;;;;;3.80;0.47;;;28.60;49.10;;;;;;9184141;19;20015;-69
2022/07/03 12:05:17;;;;;;;2.03;0.50;;;28.60;49.00;;;;;;9182018;19;20025;-69
2022/07/03 12:08:32;;;;;;;2.25;0.68;;;28.50;49.00;;;;;;9180731;19;20138;-69
2022/07/03 12:11:37;;;;;;;1.25;0.55;;;28.50;49.00;;;;;;9182308;19;20015;-68
2022/07/03 12:14:44;;;;;;;1.80;0.65;;;28.50;49.00;;;;;;9177981;19;20014;-68
2022/07/03 12:17:51;;;;;;;1.73;0.60;;;28.40;48.90;;;;;;9184915;19;20044;-68
2022/07/03 12:20:56;;;;;;;3.63;0.65;;;28.40;48.90;;;;;;9187461;19;20022;-69
2022/07/03 12:24:12;;;;;;;2.47;0.60;;;28.30;48.80;;;;;;9186613;19;20574;-68
2022/07/03 12:27:18;;;;;;;1.63;0.80;;;28.30;48.80;;;;;;9190113;19;20015;-69
2022/07/03 12:30:27;;;;;;;3.20;0.73;;;28.30;49.10;;;;;;9187915;19;20015;-68
2022/07/03 12:33:35;;;;;;;3.13;0.68;;;28.30;49.00;;;;;;9188826;19;20014;-68
2022/07/03 12:36:41;;;;;;;1.13;0.50;;;28.30;49.10;;;;;;9187526;19;20029;-68
2022/07/03 12:39:50;;;;;;;6.22;0.73;;;28.30;49.10;;;;;;9183482;19;20018;-67
2022/07/03 12:42:58;;;;;;;5.28;0.50;;;28.30;48.90;;;;;;9186799;19;20021;-68
2022/07/03 12:46:03;;;;;;;2.00;0.45;;;28.30;48.80;;;;;;9187394;19;20018;-66
2022/07/03 12:49:13;;;;;;;0.98;0.50;;;28.30;49.30;;;;;;9185855;19;20022;-69
2022/07/03 12:52:18;;;;;;;1.55;0.70;;;28.40;48.60;;;;;;9186251;19;20488;-67
2022/07/03 12:55:30;;;;;;;3.08;0.85;;;28.40;48.60;;;;;;9183278;19;20023;-68
2022/07/03 13:02:06;;;;;;;2.72;0.80;;;28.40;48.40;;;;;;9186100;19;20022;-69
2022/07/03 13:05:19;;;;;;;0.57;0.45;;;28.50;48.30;;;;;;9176479;19;20021;-68
2022/07/03 13:08:24;;;;;;;4.93;0.73;;;28.50;48.40;;;;;;9183330;19;20011;-67
2022/07/03 13:11:34;;;;;;;2.05;0.52;;;28.60;48.40;;;;;;9180654;19;20013;-68
2022/07/03 13:14:39;;;;;;;2.78;0.60;;;28.60;48.20;;;;;;9179843;19;20060;-68
2022/07/03 13:18:01;;;;;;;0.82;0.38;;;28.60;48.20;;;;;;9175091;19;20078;-68
2022/07/03 13:21:06;;;;;;;1.83;0.60;;;28.60;47.90;;;;;;9179738;19;20520;-68
2022/07/03 13:24:11;;;;;;;0.82;0.52;;;28.60;47.80;;;;;;9174679;19;20359;-69
2022/07/03 13:27:20;;;;;;;3.92;0.50;;;28.70;47.90;;;;;;9175718;19;20029;-68
2022/07/03 13:30:26;;;;;;;0.80;0.52;;;28.70;47.90;;;;;;9177437;19;20018;-69
2022/07/03 13:33:30;;;;;;;2.53;0.50;;;28.70;48.00;;;;;;9178573;19;20480;-69
2022/07/03 13:36:36;;;;;;;4.13;0.63;;;28.70;48.00;;;;;;9173733;19;20014;-68
2022/07/03 13:39:41;;;;;;;5.15;0.70;;;28.80;48.10;;;;;;9178645;19;20503;-69
2022/07/03 13:42:48;;;;;;;3.00;0.80;;;28.80;48.00;;;;;;9178120;19;20022;-69
2022/07/03 13:45:54;;;;;;;4.63;0.90;;;28.90;47.70;;;;;;9170609;19;20071;-71
2022/07/03 13:48:59;;;;;;;0.93;0.50;;;28.90;47.70;;;;;;9169592;19;20014;-69
2022/07/03 13:52:04;;;;;;;9.23;1.20;;;28.90;47.50;;;;;;9174813;19;20484;-69
2022/07/03 13:55:10;;;;;;;1.65;0.70;;;28.90;47.70;;;;;;9174492;19;20015;-71
2022/07/03 13:58:17;;;;;;;3.42;0.95;;;28.80;48.00;;;;;;9173448;19;20014;-69
2022/07/03 14:01:22;;;;;;;0.73;0.50;;;28.70;48.20;;;;;;9172043;19;20014;-69
2022/07/03 14:04:28;;;;;;;1.75;0.50;;;28.60;48.40;;;;;;9176916;19;20033;-68
2022/07/03 14:07:33;;;;;;;1.55;0.57;;;28.50;48.60;;;;;;9177683;19;20034;-70
2022/07/03 14:10:38;;;;;;;1.48;0.60;;;28.30;48.80;;;;;;9176602;19;20019;-68
2022/07/03 14:13:45;;;;;;;1.88;0.50;;;28.20;48.90;;;;;;9176109;19;20337;-68
2022/07/03 14:16:50;;;;;;;2.42;0.70;;;28.10;49.20;;;;;;9171788;19;20011;-67
2022/07/03 14:19:55;;;;;;;1.58;0.80;;;28.00;49.30;;;;;;9177149;19;20387;-67
2022/07/03 14:23:00;;;;;;;1.27;0.50;;;27.90;49.50;;;;;;9175822;19;20015;-69
2022/07/03 14:26:06;;;;;;;1.33;0.77;;;27.70;49.60;;;;;;9180155;19;20078;-69
2022/07/03 14:32:31;;;;;;;5.25;0.70;;;27.60;50.10;;;;;;9174536;19;20018;-69
2022/07/03 14:35:38;;;;;;;1.30;0.75;;;27.50;50.20;;;;;;9176730;19;20014;-69
2022/07/03 14:38:43;;;;;;;2.55;1.02;;;27.40;50.30;;;;;;9176882;19;20017;-69
2022/07/03 14:41:48;;;;;;;3.92;0.65;;;27.40;50.40;;;;;;9177636;19;20014;-71
2022/07/03 14:44:56;;;;;;;6.93;0.80;;;27.40;50.40;;;;;;9180331;19;20632;-71
2022/07/03 14:48:01;;;;;;;0.77;0.70;;;27.40;50.50;;;;;;9177698;19;20029;-72
2022/07/03 14:51:06;;;;;;;0.70;0.65;;;27.30;50.50;;;;;;9177794;19;20475;-70
2022/07/03 14:54:12;;;;;;;1.38;0.77;;;27.30;50.50;;;;;;9179406;19;20038;-69
2022/07/03 14:57:37;;;;;;;6.80;1.00;;;27.20;50.60;;;;;;9178123;19;20703;-69
2022/07/03 15:00:49;;;;;;;2.92;0.98;;;27.20;50.70;;;;;;9176526;19;20086;-68
2022/07/03 15:03:59;;;;;;;5.97;1.17;;;27.10;50.70;;;;;;9176862;19;20026;-68
2022/07/03 15:07:07;;;;;;;3.70;1.05;;;27.00;50.80;;;;;;9178449;19;20018;-70
2022/07/03 15:10:15;;;;;;;2.13;1.00;;;26.80;50.70;;;;;;9176689;19;20014;-68
2022/07/03 15:13:20;;;;;;;2.22;0.85;;;26.70;50.80;;;;;;9178145;19;20033;-68
2022/07/03 15:16:29;;;;;;;1.77;0.90;;;26.60;50.90;;;;;;9169985;19;20037;-67
2022/07/03 15:19:37;;;;;;;3.22;0.90;;;26.50;51.00;;;;;;9173610;19;20044;-69
2022/07/03 15:22:43;;;;;;;3.17;1.08;;;26.30;51.10;;;;;;9173940;19;20014;-67
2022/07/03 15:25:50;;;;;;;3.83;0.98;;;26.20;51.20;;;;;;9174019;19;20018;-68
2022/07/03 15:28:55;;;;;;;3.88;0.90;;;26.10;51.20;;;;;;9170401;19;20385;-68
2022/07/03 15:32:07;;;;;;;3.50;1.27;;;26.00;51.30;;;;;;9173544;19;20463;-68
2022/07/03 15:35:12;;;;;;;2.58;1.02;;;26.00;51.40;;;;;;9173343;19;20015;-68
2022/07/03 15:38:20;;;;;;;1.83;0.77;;;25.90;51.40;;;;;;9171773;19;20046;-68
2022/07/03 15:41:30;;;;;;;3.05;0.95;;;25.90;51.60;;;;;;9175574;19;20030;-68
2022/07/03 15:44:41;;;;;;;2.85;1.17;;;25.80;51.60;;;;;;9174151;19;20019;-68
2022/07/03 15:47:59;;;;;;;3.08;0.90;;;25.80;51.70;;;;;;9174911;19;20019;-69
2022/07/03 15:51:12;;;;;;;3.33;1.00;;;25.80;51.80;;;;;;9176574;19;20011;-69
2022/07/03 15:54:26;;;;;;;3.28;1.13;;;25.80;51.70;;;;;;9178254;19;20097;-70
2022/07/03 15:57:36;;;;;;;3.90;1.05;;;25.70;51.70;;;;;;9174258;19;20049;-70
2022/07/03 16:02:11;;;;;;;2.97;0.85;;;25.70;51.80;;;;;;9170726;19;20018;-68
2022/07/03 16:04:18;;;;;;;3.78;1.00;;;25.70;51.90;;;;;;9171335;19;20026;-68
2022/07/03 16:07:26;;;;;;;2.50;0.82;;;25.70;52.60;;;;;;9166831;19;20018;-70
2022/07/03 16:10:34;;;;;;;2.17;0.98;;;25.60;51.90;;;;;;9168706;19;20018;-69
2022/07/03 16:13:40;;;;;;;1.40;1.08;;;25.60;51.90;;;;;;9171344;19;20026;-69
2022/07/03 16:16:47;;;;;;;2.83;1.20;;;25.50;52.00;;;;;;9164103;19;20017;-69
2022/07/03 16:19:54;;;;;;;5.85;1.33;;;25.50;52.10;;;;;;9169273;19;20019;-69
2022/07/03 16:23:05;;;;;;;2.20;1.08;;;25.40;52.80;;;;;;9168865;19;20571;-69
2022/07/03 16:26:11;;;;;;;4.03;1.50;;;25.40;52.30;;;;;;9166926;19;20015;-69
2022/07/03 16:29:16;;;;;;;2.08;1.05;;;25.30;52.30;;;;;;9170302;19;20418;-66